^^
Datos históricos de la estación: Murcia-Puente Tocinos
Diario Informe para Mayo 16, 2019 Unidades:  Inglés    Métrico   Ambas
Diario Semanal Mensual Anual Configurable
  Máximo: Mínimo: Media:
Temperatura: 75.4 °F 63.1 °F 68.5 °F
Punto de rocio: 60.4 °F 49.8 °F 56.1 °F
Humedad: 84% 46% 66%
Velocidad viento: 12mph 0mph 5.8mph
Racha viento: 26.5mph - -
Viento- - ENE
Presión: 29.9 in 29.7 in -
Precipitación: 0 in    
Historical Graphs
 
 
Tabla de datos para Mayo 16, 2019
Hora Temperatura Punto de rocio Presión Viento Velocidad viento Racha viento Humedad Intensidad lluvia(por hora) Nubes
00:00 66.7 °F 60.4 °F 29.9 in NE 7 mph 15 mph 80% 0 in CLR
00:05 66.4 °F 59.7 °F 29.9 in NNE 6.9 mph 17.3 mph 79% 0 in CLR
00:07 66.2 °F 59.5 °F 29.9 in ENE 6.9 mph 15 mph 79% 0 in CLR
00:13 66 °F 59.4 °F 29.9 in NE 10.7 mph 13.8 mph 79% 0 in CLR
00:40 65.5 °F 58.5 °F 29.9 in East 7 mph 14 mph 78% 0 in CLR
00:44 65.5 °F 58.5 °F 29.9 in ESE 6.9 mph 12.7 mph 78% 0 in CLR
00:50 65.5 °F 58.5 °F 29.9 in NE 9 mph 15 mph 78% 0 in CLR
00:55 65.5 °F 58.5 °F 29.9 in ENE 9 mph 12 mph 78% 0 in CLR
01:00 65.5 °F 58.8 °F 29.9 in ENE 6 mph 9 mph 79% 0 in CLR
01:05 65.5 °F 58.8 °F 29.9 in NE 6 mph 12 mph 79% 0 in CLR
01:10 65.1 °F 58.5 °F 29.9 in NE 6 mph 14 mph 79% 0 in CLR
01:15 64.9 °F 58.3 °F 29.9 in NE 6 mph 14 mph 79% 0 in CLR
01:20 64.9 °F 58.3 °F 29.9 in NE 8 mph 13 mph 79% 0 in CLR
01:25 64.8 °F 58.5 °F 29.9 in NE 8 mph 14 mph 80% 0 in CLR
01:30 64.6 °F 58.3 °F 29.9 in NE 8 mph 12 mph 80% 0 in CLR
01:35 64.6 °F 58.3 °F 29.9 in ENE 7.6 mph 5.8 mph 80% 0 in CLR
01:39 64.4 °F 58.1 °F 29.9 in NE 5.4 mph 5.8 mph 80% 0 in CLR
01:45 64.2 °F 57.9 °F 29.9 in NE 6 mph 13 mph 80% 0 in CLR
01:49 64.2 °F 57.9 °F 29.9 in North 5.9 mph 8.1 mph 80% 0 in CLR
01:55 64 °F 57.7 °F 29.9 in NNE 6 mph 6 mph 80% 0 in CLR
02:00 64 °F 58.1 °F 29.9 in NNE 5 mph 7 mph 81% 0 in CLR
02:05 63.9 °F 57.9 °F 29.9 in NNE 5 mph 5 mph 81% 0 in CLR
02:10 63.9 °F 57.9 °F 29.9 in NNE 3 mph 8 mph 81% 0 in CLR
02:15 63.9 °F 57.9 °F 29.9 in NNE 3 mph 8 mph 81% 0 in CLR
02:16 63.7 °F 57.7 °F 29.9 in NNE 3.1 mph 5.8 mph 81% 0 in CLR
02:40 63.9 °F 57.7 °F 29.9 in NNE 3 mph 6 mph 81% 0 in CLR
02:45 63.3 °F 57.7 °F 29.9 in NNE 3 mph 8 mph 82% 0 in CLR
02:50 63.3 °F 57.7 °F 29.9 in NE 5 mph 9 mph 82% 0 in CLR
02:55 63.3 °F 58.1 °F 29.9 in NE 5 mph 7 mph 83% 0 in CLR
03:00 63.3 °F 58.1 °F 29.9 in NE 5 mph 6 mph 83% 0 in CLR
03:05 63.3 °F 58.1 °F 29.9 in NE 5 mph 6 mph 83% 0 in CLR
03:10 63.3 °F 58.1 °F 29.9 in NE 3 mph 5 mph 83% 0 in CLR
03:15 63.1 °F 57.6 °F 29.9 in NNE 3 mph 6 mph 82% 0 in CLR
03:20 63.1 °F 57.6 °F 29.9 in NNE 3 mph 5 mph 82% 0 in CLR
03:25 63.1 °F 57.6 °F 29.9 in NNE 3 mph 5 mph 82% 0 in CLR
03:30 63.3 °F 57.7 °F 29.9 in NNE 2 mph 5 mph 82% 0 in CLR
03:35 63.3 °F 57.7 °F 29.9 in NNE 2 mph 5 mph 82% 0 in CLR
03:40 63.3 °F 57.7 °F 29.9 in North 2 mph 5 mph 82% 0 in CLR
03:45 63.3 °F 57.4 °F 29.9 in North 2 mph 6 mph 81% 0 in CLR
03:50 63.3 °F 57.4 °F 29.9 in NNE 2 mph 6 mph 81% 0 in CLR
03:55 63.3 °F 57.4 °F 29.9 in NNE 2 mph 5 mph 81% 0 in CLR
04:00 63.3 °F 57.4 °F 29.9 in North 3 mph 5 mph 81% 0 in CLR
04:05 63.3 °F 57.4 °F 29.9 in NNE 3 mph 5 mph 81% 0 in CLR
04:10 63.3 °F 57.4 °F 29.9 in NNE 2.9 mph 2.3 mph 81% 0 in CLR
04:15 63.3 °F 57.4 °F 29.9 in NE 2 mph 5 mph 81% 0 in CLR
04:20 63.3 °F 57.4 °F 29.9 in NE 2 mph 4 mph 81% 0 in CLR
04:25 63.3 °F 57.4 °F 29.9 in NE 2 mph 5 mph 81% 0 in CLR
04:30 63.3 °F 57.4 °F 29.9 in NE 2 mph 4 mph 81% 0 in CLR
04:35 63.5 °F 57.6 °F 29.9 in NNE 2 mph 5 mph 81% 0 in CLR
04:40 63.5 °F 57.6 °F 29.9 in NNE 2 mph 5 mph 81% 0 in CLR
04:45 63.5 °F 57.6 °F 29.9 in NNE 2 mph 5 mph 81% 0 in CLR
04:50 63.5 °F 57.6 °F 29.9 in NNE 2 mph 4 mph 81% 0 in CLR
04:55 63.5 °F 57.6 °F 29.9 in NNE 2 mph 4 mph 81% 0 in CLR
05:00 63.5 °F 57.6 °F 29.9 in NE 2 mph 4 mph 81% 0 in CLR
05:05 63.5 °F 57.6 °F 29.9 in NE 2 mph 5 mph 81% 0 in CLR
05:10 63.3 °F 57.4 °F 29.9 in NNE 2 mph 5 mph 81% 0 in CLR
05:15 63.3 °F 57.4 °F 29.9 in NNE 2 mph 3 mph 81% 0 in CLR
05:20 63.3 °F 57.4 °F 29.9 in NNE 2 mph 5 mph 81% 0 in CLR
05:25 63.3 °F 57.4 °F 29.9 in NE 2 mph 5 mph 81% 0 in CLR
05:30 63.3 °F 57.4 °F 29.9 in ENE 2 mph 5 mph 81% 0 in CLR
05:35 63.3 °F 57.4 °F 29.9 in NE 2 mph 5 mph 81% 0 in CLR
05:40 63.3 °F 57.4 °F 29.9 in NE 2 mph 2 mph 81% 0 in CLR
05:45 63.3 °F 57.4 °F 29.9 in NNE 2 mph   81% 0 in CLR
05:50 63.3 °F 57.4 °F 29.9 in Calm     81% 0 in CLR
05:55 63.5 °F 57.6 °F 29.9 in Calm     81% 0 in CLR
06:00 63.5 °F 57.6 °F 29.9 in Calm     81% 0 in CLR
06:05 63.7 °F 57.7 °F 29.9 in Calm   4 mph 81% 0 in CLR
06:10 63.7 °F 57.7 °F 29.9 in Calm     81% 0 in CLR
06:15 63.7 °F 57.7 °F 29.9 in Calm   2 mph 81% 0 in CLR
06:20 63.7 °F 57.7 °F 29.9 in North 1.4 mph   81% 0 in CLR
06:25 63.7 °F 57.7 °F 29.9 in NNE 1 mph 5 mph 81% 0 in CLR
06:30 63.7 °F 57.7 °F 29.9 in NE 2 mph 5 mph 81% 0 in CLR
06:35 63.5 °F 57.6 °F 29.9 in NE 2 mph 6 mph 81% 0 in CLR
06:40 63.7 °F 57.7 °F 29.9 in NE 3 mph 6 mph 81% 0 in CLR
06:45 63.7 °F 57.7 °F 29.9 in NNE 3 mph 6 mph 81% 0 in CLR
06:50 63.7 °F 57.7 °F 29.9 in NNE 3 mph 7 mph 81% 0 in CLR
06:55 63.7 °F 57.9 °F 29.9 in NE 3 mph 9 mph 82% 0 in CLR
07:00 63.7 °F 58.1 °F 29.9 in NE 5 mph 7 mph 82% 0 in CLR
07:05 63.5 °F 57.9 °F 29.9 in NNE 5 mph 7 mph 82% 0 in CLR
07:10 63.5 °F 57.9 °F 29.9 in NNE 5 mph 7 mph 82% 0 in CLR
07:15 63.7 °F 58.5 °F 29.9 in NNE 5 mph 6 mph 83% 0 in CLR
07:20 63.7 °F 58.5 °F 29.9 in NNE 3 mph 6 mph 83% 0 in CLR
07:25 63.7 °F 58.5 °F 29.9 in NNE 3 mph 5 mph 83% 0 in CLR
07:30 63.7 °F 58.5 °F 29.9 in NE 3 mph 6 mph 83% 0 in CLR
07:35 63.7 °F 58.5 °F 29.9 in NE 3 mph 7 mph 83% 0 in CLR
07:40 63.7 °F 58.5 °F 29.9 in NE 3 mph 7 mph 83% 0 in CLR
07:45 63.9 °F 58.8 °F 29.9 in ENE 3 mph 6 mph 84% 0 in CLR
07:50 63.9 °F 58.8 °F 29.9 in NE 3 mph 5 mph 84% 0 in CLR
07:55 64 °F 59.2 °F 29.9 in NE 3 mph 5 mph 84% 0 in CLR
08:00 64 °F 58.8 °F 29.9 in NE 2 mph 5 mph 83% 0 in CLR
08:05 64.4 °F 59.2 °F 29.9 in NNE 2 mph 8 mph 83% 0 in CLR
08:10 64.8 °F 59.2 °F 29.9 in NNE 5 mph 9 mph 82% 0 in CLR
08:15 64.9 °F 59.2 °F 29.9 in NNE 5 mph 7 mph 81% 0 in CLR
08:20 65.5 °F 59.2 °F 29.9 in NNE 5 mph 9 mph 80% 0 in CLR
08:25 65.7 °F 59 °F 29.9 in NE 5 mph 10 mph 79% 0 in CLR
08:30 65.8 °F 58.5 °F 29.9 in NE 6 mph 10 mph 77% 0 in CLR
08:35 65.5 °F 58.5 °F 29.9 in NE 6 mph 10 mph 78% 0 in CLR
08:40 65.8 °F 58.5 °F 29.9 in NE 6 mph 9 mph 77% 0 in CLR
08:45 66 °F 58.3 °F 29.9 in NE 5.9 mph 8.1 mph 76% 0 in CLR
08:50 65.8 °F 57.7 °F 29.9 in NE 6 mph 8 mph 75% 0 in CLR
08:55 66 °F 57.6 °F 29.9 in NE 6 mph 8 mph 74% 0 in CLR
09:00 66.4 °F 57 °F 29.9 in NE 5 mph 10 mph 72% 0 in CLR
09:05 66.4 °F 57 °F 29.9 in NE 5 mph 8 mph 72% 0 in CLR
09:10 66.7 °F 56.7 °F 29.9 in NE 5 mph 9 mph 70% 0 in CLR
09:15 67.3 °F 56.8 °F 29.9 in ENE 5 mph 7 mph 69% 0 in CLR
09:20 67.6 °F 57.6 °F 29.9 in ENE 3 mph 9 mph 70% 0 in CLR
09:25 67.6 °F 57.6 °F 29.9 in ENE 3 mph 7 mph 70% 0 in CLR
09:30 67.6 °F 57.6 °F 29.9 in NE 5 mph 10 mph 70% 0 in CLR
09:35 67.5 °F 57.4 °F 29.9 in NE 5 mph 7 mph 70% 0 in CLR
09:40 67.6 °F 57.6 °F 29.9 in NNE 5 mph 7 mph 70% 0 in CLR
09:45 68 °F 57 °F 29.9 in NNE 5 mph 6 mph 68% 0 in CLR
09:50 68.4 °F 57 °F 29.9 in NE 3 mph 9 mph 67% 0 in CLR
09:55 68.4 °F 57.4 °F 29.9 in NE 3 mph 6 mph 68% 0 in CLR
10:00 68.5 °F 57 °F 29.9 in NE 3 mph 7 mph 67% 0 in CLR
10:05 68.7 °F 56.5 °F 29.9 in NE 3 mph 8 mph 65% 0 in CLR
10:10 68.9 °F 56.1 °F 29.9 in NNE 5 mph 9 mph 64% 0 in CLR
10:15 68.5 °F 55.4 °F 29.9 in NE 4.3 mph 6.9 mph 63% 0 in CLR
10:20 68.5 °F 55.4 °F 29.9 in NE 6 mph 9 mph 63% 0 in CLR
10:25 68.9 °F 55.4 °F 29.9 in NE 6 mph 8 mph 62% 0 in CLR
10:30 69.4 °F 55.4 °F 29.9 in NE 5 mph 8 mph 61% 0 in CLR
10:35 69.6 °F 55.6 °F 29.9 in NE 5 mph 9 mph 61% 0 in CLR
10:40 70.2 °F 54.7 °F 29.9 in NE 5 mph 11 mph 58% 0 in CLR
10:45 69.6 °F 54.7 °F 29.9 in NE 5 mph 11 mph 59% 0 in CLR
10:50 70 °F 53.1 °F 29.8 in East 5.4 mph 9.2 mph 55% 0 in CLR
10:55 70.2 °F 53.2 °F 29.8 in ENE 6 mph 11 mph 55% 0 in CLR
11:00 70.5 °F 53.4 °F 29.8 in ENE 6 mph 10 mph 55% 0 in CLR
11:05 70.3 °F 52.9 °F 29.9 in NE 6 mph 10 mph 54% 0 in CLR
11:10 70.2 °F 52.2 °F 29.9 in NE 6 mph 9 mph 53% 0 in CLR
11:15 70.5 °F 52.5 °F 29.9 in NE 6 mph 10 mph 53% 0 in CLR
11:20 70.9 °F 52.9 °F 29.8 in NE 6 mph 9 mph 53% 0 in CLR
11:25 71.2 °F 53.2 °F 29.8 in NE 5.9 mph 4.6 mph 53% 0 in CLR
11:30 71.8 °F 52.2 °F 29.8 in NE 3 mph 15 mph 50% 0 in CLR
11:35 71.8 °F 49.8 °F 29.8 in NE 3 mph 12 mph 46% 0 in CLR
11:40 72 °F 50 °F 29.8 in ENE 6 mph 9 mph 46% 0 in CLR
11:45 72 °F 51.3 °F 29.8 in NE 6 mph 10 mph 48% 0 in CLR
11:50 72.3 °F 51.1 °F 29.8 in NE 6 mph 16 mph 47% 0 in CLR
11:55 71.8 °F 50.5 °F 29.8 in NE 6 mph 16 mph 47% 0 in CLR
11:59 71.8 °F 50.5 °F 29.8 in East 8.1 mph 8.1 mph 47% 0 in CLR
12:05 72.1 °F 50.2 °F 29.8 in NE 8 mph 15 mph 46% 0 in CLR
12:10 72.1 °F 50.2 °F 29.8 in NE 6 mph 11 mph 46% 0 in CLR
12:15 72.3 °F 51.1 °F 29.8 in NE 6 mph 13 mph 47% 0 in CLR
12:20 72.7 °F 51.3 °F 29.8 in NE 7 mph 14 mph 47% 0 in CLR
12:25 72.9 °F 51.4 °F 29.8 in NE 7 mph 16 mph 47% 0 in CLR
12:30 73 °F 51.1 °F 29.8 in NE 9 mph 16 mph 46% 0 in CLR
12:34 73 °F 51.1 °F 29.8 in East 8.7 mph 6.9 mph 46% 0 in CLR
12:40 73.4 °F 51.4 °F 29.8 in NE 6 mph 15 mph 46% 0 in CLR
12:45 73.2 °F 51.3 °F 29.8 in NE 6 mph 14 mph 46% 0 in CLR
12:50 73 °F 51.6 °F 29.8 in NE 9 mph 15 mph 47% 0 in CLR
12:55 72.9 °F 52 °F 29.8 in NE 9 mph 16 mph 48% 0 in CLR
12:59 73 °F 52.2 °F 29.8 in SE 8.1 mph 8.1 mph 48% 0 in CLR
13:04 73.8 °F 52.9 °F 29.8 in NE 8.1 mph 11.5 mph 48% 0 in CLR
13:10 73.9 °F 53.1 °F 29.8 in NE 7 mph 14 mph 48% 0 in CLR
13:15 73.8 °F 52.9 °F 29.8 in NE 7 mph 13 mph 48% 0 in CLR
13:20 73 °F 52.9 °F 29.8 in NE 9 mph 16 mph 49% 0 in CLR
13:25 73.6 °F 53.2 °F 29.8 in NE 9 mph 14 mph 49% 0 in CLR
13:30 73.8 °F 54 °F 29.8 in NNE 8.5 mph 10.4 mph 50% 0 in CLR
13:35 73.9 °F 53.6 °F 29.8 in NE 8 mph 15 mph 49% 0 in CLR
13:40 73.8 °F 53.4 °F 29.8 in NE 8 mph 14 mph 49% 0 in CLR
13:45 73.4 °F 53.1 °F 29.8 in NE 8.5 mph 17.3 mph 49% 0 in CLR
13:50 73.2 °F 53.4 °F 29.8 in NE 10 mph 20 mph 50% 0 in CLR
13:55 73.8 °F 54 °F 29.8 in ENE 10 mph 16 mph 50% 0 in CLR
13:59 73.9 °F 54.1 °F 29.8 in ENE 8.5 mph 12.7 mph 50% 0 in CLR
14:05 74.1 °F 53.8 °F 29.8 in NE 8 mph 17 mph 49% 0 in CLR
14:10 74.1 °F 53.8 °F 29.8 in NE 9 mph 16 mph 49% 0 in CLR
14:14 74.1 °F 53.8 °F 29.8 in NE 9.7 mph 17.3 mph 49% 0 in CLR
14:20 74.3 °F 54.5 °F 29.8 in NE 9 mph 15 mph 50% 0 in CLR
14:24 74.1 °F 54.3 °F 29.8 in NE 8.7 mph 16.1 mph 50% 0 in CLR
14:30 74.5 °F 54.7 °F 29.8 in NE 9 mph 17 mph 50% 0 in CLR
14:35 74.1 °F 53.8 °F 29.8 in NE 9 mph 21 mph 49% 0 in CLR
14:40 74.1 °F 53.8 °F 29.8 in NE 12 mph 18 mph 49% 0 in CLR
14:45 73.9 °F 54.1 °F 29.8 in NE 12 mph 17 mph 50% 0 in CLR
14:49 74.3 °F 54.5 °F 29.8 in ENE 10.2 mph 20.7 mph 50% 0 in CLR
14:54 74.5 °F 53.4 °F 29.8 in ESE 10.2 mph 26.5 mph 48% 0 in CLR
15:00 74.8 °F 52.7 °F 29.8 in East 10 mph 18 mph 46% 0 in CLR
15:04 75.4 °F 53.2 °F 29.8 in ESE 10.2 mph 14 mph 46% 0 in CLR
15:10 75 °F 52.9 °F 29.8 in ESE 9 mph 15 mph 46% 0 in CLR
15:15 75 °F 53.4 °F 29.8 in SE 9 mph 14 mph 47% 0 in CLR
15:20 75 °F 53.4 °F 29.8 in SE 8 mph 14 mph 47% 0 in CLR
15:24 75 °F 53.4 °F 29.8 in ESE 8.1 mph 12.7 mph 47% 0 in CLR
15:29 75.4 °F 53.8 °F 29.8 in ESE 8.1 mph 11.5 mph 47% 0 in CLR
15:34 75.4 °F 54.3 °F 29.8 in SE 8.1 mph 10.2 mph 48% 0 in CLR
15:40 75.4 °F 55.4 °F 29.8 in ESE 8 mph 17 mph 50% 0 in CLR
15:44 75.4 °F 54.9 °F 29.8 in ESE 7.6 mph 11.5 mph 49% 0 in CLR
15:50 75.2 °F 55.2 °F 29.8 in ESE 9 mph 16 mph 50% 0 in CLR
15:55 75 °F 55 °F 29.8 in ESE 9 mph 16 mph 50% 0 in CLR
16:00 74.8 °F 55.6 °F 29.8 in ESE 9 mph 15 mph 51% 0 in CLR
16:04 75 °F 55.8 °F 29.7 in SE 9.7 mph 12.7 mph 51% 0 in CLR
16:10 74.8 °F 55.6 °F 29.7 in ESE 9 mph 19 mph 51% 0 in CLR
16:14 74.1 °F 55.4 °F 29.7 in East 8.7 mph 17.3 mph 52% 0 in CLR
16:19 74.5 °F 56.1 °F 29.7 in SE 10.7 mph 12.7 mph 53% 0 in CLR
16:25 74.8 °F 55.6 °F 29.7 in ESE 10 mph 15 mph 51% 0 in CLR
16:30 74.8 °F 56.1 °F 29.7 in ESE 8 mph 18 mph 52% 0 in CLR
16:35 74.7 °F 55.9 °F 29.7 in ESE 8 mph 18 mph 52% 0 in CLR
16:39 74.5 °F 55.2 °F 29.7 in ESE 10 mph 15 mph 51% 0 in CLR
16:44 74.8 °F 55.6 °F 29.7 in ESE 10 mph 15 mph 51% 0 in CLR
16:50 74.8 °F 56.1 °F 29.7 in ESE 8 mph 13 mph 52% 0 in CLR
16:54 75.2 °F 55.8 °F 29.7 in East 8.5 mph 13.8 mph 51% 0 in CLR
16:59 74.8 °F 55.9 °F 29.7 in ESE 7.4 mph 13.8 mph 52% 0 in CLR
17:05 74.7 °F 55.8 °F 29.7 in ESE 7 mph 15 mph 52% 0 in CLR
17:09 74.5 °F 56.1 °F 29.7 in East 8.5 mph 12.7 mph 53% 0 in CLR
17:15 73.9 °F 55.8 °F 29.7 in ENE 8 mph 14 mph 53% 0 in CLR
17:19 73.8 °F 55.6 °F 29.7 in NE 6.2 mph 12.7 mph 53% 0 in CLR
17:25 74.1 °F 55.8 °F 29.7 in East 6 mph 12 mph 53% 0 in CLR
17:29 74.5 °F 56.1 °F 29.7 in SE 7.4 mph 9.2 mph 53% 0 in CLR
17:35 74.5 °F 55.8 °F 29.7 in ESE 7 mph 15 mph 52% 0 in CLR
17:40 73.9 °F 55.8 °F 29.7 in ESE 8 mph 17 mph 53% 0 in CLR
17:45 73.8 °F 56.1 °F 29.7 in ESE 8 mph 17 mph 54% 0 in CLR
17:50 73.4 °F 56.1 °F 29.7 in ESE 10 mph 16 mph 55% 0 in CLR
17:54 73.6 °F 56.5 °F 29.7 in ESE 10.7 mph 17.3 mph 55% 0 in CLR
18:00 73.6 °F 56.5 °F 29.7 in SE 9 mph 17 mph 55% 0 in CLR
18:05 73.2 °F 56.7 °F 29.7 in SE 8.7 mph 16.1 mph 56% 0 in CLR
18:09 73.2 °F 56.7 °F 29.7 in ESE 10.2 mph 14.7 mph 56% 0 in CLR
18:14 73.2 °F 56.7 °F 29.7 in ESE 10.2 mph 12.7 mph 56% 0 in CLR
18:20 73.8 °F 57 °F 29.7 in ESE 8 mph 16 mph 56% 0 in CLR
18:24 72.9 °F 56.7 °F 29.7 in SE 8.1 mph 17.3 mph 57% 0 in CLR
18:29 72.7 °F 56.7 °F 29.7 in ESE 10.2 mph 12.7 mph 57% 0 in CLR
18:34 72.7 °F 56.7 °F 29.7 in ESE 10.2 mph 15 mph 57% 0 in CLR
18:39 72.3 °F 56.1 °F 29.7 in SE 10 mph 17.3 mph 57% 0 in CLR
18:44 72.1 °F 56.5 °F 29.7 in ESE 10 mph 15.9 mph 58% 0 in CLR
18:50 72 °F 56.5 °F 29.7 in ESE 12 mph 17 mph 58% 0 in CLR
18:54 71.8 °F 56.7 °F 29.7 in SE 11.8 mph 11.5 mph 59% 0 in CLR
19:00 71.8 °F 56.1 °F 29.7 in ESE 10 mph 17 mph 58% 0 in CLR
19:04 71.8 °F 56.1 °F 29.7 in ESE 10 mph 15 mph 58% 0 in CLR
19:09 71.4 °F 56.3 °F 29.7 in East 10.7 mph 15 mph 59% 0 in CLR
19:14 71.2 °F 56.1 °F 29.7 in SE 10.7 mph 15 mph 59% 0 in CLR
19:20 71.1 °F 55.9 °F 29.7 in ESE 10 mph 18 mph 59% 0 in CLR
19:24 71.1 °F 55.9 °F 29.7 in SE 10 mph 15 mph 59% 0 in CLR
19:29 71.1 °F 55.9 °F 29.7 in ESE 9.2 mph 17.3 mph 59% 0 in CLR
19:34 70.9 °F 55.8 °F 29.7 in ENE 9.2 mph 13.8 mph 59% 0 in CLR
19:39 70.5 °F 55.6 °F 29.7 in ESE 10.2 mph 17.3 mph 59% 0 in CLR
19:45 70.3 °F 55.8 °F 29.7 in ESE 10 mph 17 mph 60% 0 in CLR
19:49 70.3 °F 55.8 °F 29.7 in ESE 10 mph 18.4 mph 60% 0 in CLR
19:55 70.2 °F 55.6 °F 29.7 in ESE 10 mph 17 mph 60% 0 in CLR
19:59 70.2 °F 55.6 °F 29.7 in ESE 9.7 mph 12.7 mph 60% 0 in CLR
20:05 70.2 °F 55.9 °F 29.7 in ESE 9 mph 13 mph 61% 0 in CLR
20:09 70 °F 55.9 °F 29.7 in ESE 8.1 mph 9.2 mph 61% 0 in CLR
20:14 70 °F 55.9 °F 29.7 in ESE 8.1 mph 9.2 mph 61% 0 in CLR
20:19 70 °F 56.5 °F 29.7 in ESE 6.2 mph 6.9 mph 62% 0 in CLR
20:24 70 °F 56.5 °F 29.7 in East 6.2 mph 13.8 mph 62% 0 in CLR
20:29 69.8 °F 56.7 °F 29.7 in SE 6.9 mph 7.4 mph 63% 0 in CLR
20:34 69.6 °F 56.8 °F 29.7 in ESE 6.9 mph 11.5 mph 64% 0 in CLR
20:39 69.4 °F 57.2 °F 29.7 in SE 6.2 mph 8.5 mph 65% 0 in CLR
20:44 69.3 °F 57 °F 29.7 in ESE 6.2 mph 9.2 mph 65% 0 in CLR
20:50 69.4 °F 57.2 °F 29.7 in ESE 6 mph 11 mph 65% 0 in CLR
20:55 69.3 °F 57.4 °F 29.7 in ESE 6 mph 15 mph 66% 0 in CLR
20:59 69.1 °F 57.2 °F 29.7 in SE 6.4 mph 4.7 mph 66% 0 in CLR
21:04 69.1 °F 57.2 °F 29.7 in ESE 6.4 mph 5.8 mph 66% 0 in CLR
21:09 69.1 °F 57.2 °F 29.7 in ESE 4 mph 10.4 mph 66% 0 in CLR
21:15 68.9 °F 57 °F 29.7 in SE 5 mph 9 mph 66% 0 in CLR
21:19 68.7 °F 56.8 °F 29.7 in SE 5.2 mph 4.6 mph 66% 0 in CLR
21:24 68.7 °F 56.8 °F 29.7 in East 5.2 mph 5.2 mph 66% 0 in CLR
21:29 68.5 °F 56.7 °F 29.7 in SE 2.9 mph 6.9 mph 66% 0 in CLR
21:34 68.4 °F 56.7 °F 29.7 in SSE 2.9 mph 5.9 mph 66% 0 in CLR
21:39 68.4 °F 57 °F 29.7 in SE 5.2 mph 4.7 mph 67% 0 in CLR
21:44 68.4 °F 57 °F 29.7 in SE 5.2 mph 4.3 mph 67% 0 in CLR
21:49 68.2 °F 56.8 °F 29.7 in SE 3.1 mph 8.1 mph 67% 0 in CLR
21:54 68.2 °F 56.8 °F 29.7 in ESE 3.1 mph 5.8 mph 67% 0 in CLR
21:59 67.8 °F 56.5 °F 29.7 in East 4 mph 6.9 mph 67% 0 in CLR
22:04 67.6 °F 56.7 °F 29.7 in East 4 mph 4.7 mph 68% 0 in CLR
22:09 67.5 °F 56.5 °F 29.7 in NE 4 mph 3.5 mph 68% 0 in CLR
22:14 67.5 °F 56.5 °F 29.7 in East 4 mph 4 mph 68% 0 in CLR
22:20 67.3 °F 56.5 °F 29.7 in ENE 2 mph 5 mph 68% 0 in CLR
22:24 67.3 °F 56.5 °F 29.7 in NE 2.4 mph 3.5 mph 68% 0 in CLR
22:29 67.1 °F 56.1 °F 29.7 in NNE 2.4 mph 4.6 mph 68% 0 in CLR
22:34 66.9 °F 56.5 °F 29.7 in NE 2.4 mph 5.8 mph 69% 0 in CLR
22:39 66.7 °F 56.1 °F 29.7 in NE 3.6 mph 4.7 mph 69% 0 in CLR
22:44 66.6 °F 56.5 °F 29.7 in NE 3.6 mph 4.6 mph 70% 0 in CLR
22:49 66.2 °F 56.1 °F 29.7 in North 3.6 mph 5.8 mph 70% 0 in CLR
22:54 66 °F 55.9 °F 29.7 in NE 3.6 mph 5.8 mph 70% 0 in CLR
22:59 65.8 °F 56.1 °F 29.7 in ENE 4 mph 6.9 mph 71% 0 in CLR
23:04 65.7 °F 55.9 °F 29.7 in NE 4 mph 6.9 mph 71% 0 in CLR
23:09 65.5 °F 55.8 °F 29.7 in North 4.3 mph 4.6 mph 71% 0 in CLR
23:14 65.7 °F 56.5 °F 29.7 in ENE 4.3 mph 4.6 mph 72% 0 in CLR
23:19 65.5 °F 56.1 °F 29.7 in ENE 4 mph 8.1 mph 72% 0 in CLR
23:24 65.3 °F 56.5 °F 29.7 in NE 4 mph 5.8 mph 73% 0 in CLR
23:29 65.1 °F 56.1 °F 29.7 in NNE 4 mph 4.6 mph 73% 0 in CLR
23:34 65.1 °F 56.7 °F 29.7 in ENE 4 mph 4.6 mph 74% 0 in CLR
23:39 65.1 °F 56.7 °F 29.7 in NE 3.1 mph 5.8 mph 74% 0 in CLR
23:44 64.9 °F 56.8 °F 29.7 in NE 3.1 mph 4.7 mph 75% 0 in CLR
23:49 64.8 °F 56.7 °F 29.7 in North 4.3 mph 6.9 mph 75% 0 in CLR
23:54 64.6 °F 57.2 °F 29.7 in NE 4.3 mph 6.9 mph 77% 0 in CLR
23:59 64.6 °F 57.6 °F 29.7 in NE 4.3 mph 4.6 mph 78% 0 in CLR
Murcia-Puente Tocinos, España
Compliments of Weather Underground - 2.75 mb

La estación de MeteoMurcia.com, publica sus datos en los siguientes proyectos:

Weather Underground PWS IMURCIAP2 Meteoclimatic www.awekas.at

W3Counter
Web Analytics